sensor_id;sensor_type;location;lat;lon;timestamp;P1;durP1;ratioP1;P2;durP2;ratioP2
61785;SDS011;47692;53.714;11.372;2022-11-15T00:00:19;43.88;;;18.95;;
61785;SDS011;47692;53.714;11.372;2022-11-15T00:02:45;42.53;;;19.42;;
61785;SDS011;47692;53.714;11.372;2022-11-15T00:05:10;44.17;;;20.50;;
61785;SDS011;47692;53.714;11.372;2022-11-15T00:07:35;49.10;;;20.00;;
61785;SDS011;47692;53.714;11.372;2022-11-15T00:10:01;41.53;;;18.88;;
61785;SDS011;47692;53.714;11.372;2022-11-15T00:12:27;39.45;;;18.33;;
61785;SDS011;47692;53.714;11.372;2022-11-15T00:14:53;42.78;;;19.52;;
61785;SDS011;47692;53.714;11.372;2022-11-15T00:17:18;41.72;;;19.55;;
61785;SDS011;47692;53.714;11.372;2022-11-15T00:19:43;43.22;;;19.85;;
61785;SDS011;47692;53.714;11.372;2022-11-15T00:22:09;44.75;;;21.13;;
61785;SDS011;47692;53.714;11.372;2022-11-15T00:24:34;45.20;;;19.67;;
61785;SDS011;47692;53.714;11.372;2022-11-15T00:26:59;39.00;;;17.55;;
61785;SDS011;47692;53.714;11.372;2022-11-15T00:29:24;41.72;;;19.30;;
61785;SDS011;47692;53.714;11.372;2022-11-15T00:31:50;37.72;;;18.83;;
61785;SDS011;47692;53.714;11.372;2022-11-15T00:34:15;47.35;;;21.17;;
61785;SDS011;47692;53.714;11.372;2022-11-15T00:36:40;42.38;;;18.55;;
61785;SDS011;47692;53.714;11.372;2022-11-15T00:39:06;37.67;;;18.75;;
61785;SDS011;47692;53.714;11.372;2022-11-15T00:41:31;40.88;;;19.90;;
61785;SDS011;47692;53.714;11.372;2022-11-15T00:43:56;42.35;;;18.85;;
61785;SDS011;47692;53.714;11.372;2022-11-15T00:46:22;44.35;;;19.77;;
61785;SDS011;47692;53.714;11.372;2022-11-15T00:48:47;35.33;;;18.02;;
61785;SDS011;47692;53.714;11.372;2022-11-15T00:51:13;38.50;;;18.25;;
61785;SDS011;47692;53.714;11.372;2022-11-15T00:53:38;37.83;;;18.45;;
61785;SDS011;47692;53.714;11.372;2022-11-15T00:56:03;41.17;;;18.48;;
61785;SDS011;47692;53.714;11.372;2022-11-15T00:58:29;34.75;;;17.70;;
61785;SDS011;47692;53.714;11.372;2022-11-15T01:00:54;41.28;;;18.60;;
61785;SDS011;47692;53.714;11.372;2022-11-15T01:03:20;37.50;;;18.25;;
61785;SDS011;47692;53.714;11.372;2022-11-15T01:05:45;37.42;;;17.35;;
61785;SDS011;47692;53.714;11.372;2022-11-15T01:08:14;33.40;;;17.02;;
61785;SDS011;47692;53.714;11.372;2022-11-15T01:10:40;38.03;;;18.85;;
61785;SDS011;47692;53.714;11.372;2022-11-15T01:13:06;35.25;;;17.85;;
61785;SDS011;47692;53.714;11.372;2022-11-15T01:15:31;37.83;;;16.77;;
61785;SDS011;47692;53.714;11.372;2022-11-15T01:17:57;35.65;;;18.17;;
61785;SDS011;47692;53.714;11.372;2022-11-15T01:20:22;32.50;;;16.83;;
61785;SDS011;47692;53.714;11.372;2022-11-15T01:22:47;38.90;;;17.95;;
61785;SDS011;47692;53.714;11.372;2022-11-15T01:25:13;37.60;;;17.55;;
61785;SDS011;47692;53.714;11.372;2022-11-15T01:27:38;36.97;;;18.17;;
61785;SDS011;47692;53.714;11.372;2022-11-15T01:30:04;39.58;;;18.40;;
61785;SDS011;47692;53.714;11.372;2022-11-15T01:32:29;38.63;;;18.05;;
61785;SDS011;47692;53.714;11.372;2022-11-15T01:34:55;37.33;;;17.17;;
61785;SDS011;47692;53.714;11.372;2022-11-15T01:37:20;38.45;;;18.58;;
61785;SDS011;47692;53.714;11.372;2022-11-15T01:39:45;36.70;;;17.60;;
61785;SDS011;47692;53.714;11.372;2022-11-15T01:42:14;40.33;;;18.83;;
61785;SDS011;47692;53.714;11.372;2022-11-15T01:44:40;38.90;;;18.35;;
61785;SDS011;47692;53.714;11.372;2022-11-15T01:47:13;36.63;;;17.65;;
61785;SDS011;47692;53.714;11.372;2022-11-15T01:49:45;38.80;;;16.35;;
61785;SDS011;47692;53.714;11.372;2022-11-15T01:52:17;38.65;;;19.33;;
61785;SDS011;47692;53.714;11.372;2022-11-15T01:54:44;40.15;;;18.13;;
61785;SDS011;47692;53.714;11.372;2022-11-15T01:57:11;33.13;;;17.70;;
61785;SDS011;47692;53.714;11.372;2022-11-15T01:59:38;37.30;;;18.83;;
61785;SDS011;47692;53.714;11.372;2022-11-15T02:02:07;35.53;;;17.17;;
61785;SDS011;47692;53.714;11.372;2022-11-15T02:04:33;35.28;;;18.13;;
61785;SDS011;47692;53.714;11.372;2022-11-15T02:07:04;37.35;;;18.08;;
61785;SDS011;47692;53.714;11.372;2022-11-15T02:09:31;40.45;;;17.52;;
61785;SDS011;47692;53.714;11.372;2022-11-15T02:11:56;37.25;;;17.02;;
61785;SDS011;47692;53.714;11.372;2022-11-15T02:14:24;35.40;;;17.48;;
61785;SDS011;47692;53.714;11.372;2022-11-15T02:16:59;35.30;;;17.63;;
61785;SDS011;47692;53.714;11.372;2022-11-15T02:19:59;34.60;;;17.08;;
61785;SDS011;47692;53.714;11.372;2022-11-15T02:31:03;30.77;;;16.52;;
61785;SDS011;47692;53.714;11.372;2022-11-15T02:33:40;37.50;;;17.20;;
61785;SDS011;47692;53.714;11.372;2022-11-15T02:39:34;31.77;;;15.90;;
61785;SDS011;47692;53.714;11.372;2022-11-15T02:42:09;35.40;;;17.77;;
61785;SDS011;47692;53.714;11.372;2022-11-15T02:45:03;36.47;;;17.08;;
61785;SDS011;47692;53.714;11.372;2022-11-15T02:47:34;33.00;;;15.43;;
61785;SDS011;47692;53.714;11.372;2022-11-15T02:50:07;32.53;;;16.48;;
61785;SDS011;47692;53.714;11.372;2022-11-15T02:52:35;36.10;;;17.33;;
61785;SDS011;47692;53.714;11.372;2022-11-15T02:55:01;36.60;;;17.98;;
61785;SDS011;47692;53.714;11.372;2022-11-15T03:00:14;32.60;;;17.33;;
61785;SDS011;47692;53.714;11.372;2022-11-15T03:02:42;33.60;;;15.88;;
61785;SDS011;47692;53.714;11.372;2022-11-15T03:08:01;33.00;;;16.98;;
61785;SDS011;47692;53.714;11.372;2022-11-15T03:10:32;30.80;;;15.75;;
61785;SDS011;47692;53.714;11.372;2022-11-15T03:13:39;30.88;;;14.63;;
61785;SDS011;47692;53.714;11.372;2022-11-15T03:16:19;31.45;;;16.02;;
61785;SDS011;47692;53.714;11.372;2022-11-15T03:18:50;28.75;;;14.07;;
61785;SDS011;47692;53.714;11.372;2022-11-15T03:21:20;34.42;;;15.07;;
61785;SDS011;47692;53.714;11.372;2022-11-15T03:23:47;31.10;;;15.57;;
61785;SDS011;47692;53.714;11.372;2022-11-15T03:26:16;29.73;;;14.93;;
61785;SDS011;47692;53.714;11.372;2022-11-15T03:29:08;30.25;;;15.15;;
61785;SDS011;47692;53.714;11.372;2022-11-15T03:31:37;30.70;;;14.85;;
61785;SDS011;47692;53.714;11.372;2022-11-15T03:37:02;29.45;;;14.93;;
61785;SDS011;47692;53.714;11.372;2022-11-15T03:39:29;28.83;;;15.45;;
61785;SDS011;47692;53.714;11.372;2022-11-15T03:41:57;32.03;;;16.13;;
61785;SDS011;47692;53.714;11.372;2022-11-15T03:47:17;27.45;;;14.40;;
61785;SDS011;47692;53.714;11.372;2022-11-15T03:49:49;32.38;;;14.45;;
61785;SDS011;47692;53.714;11.372;2022-11-15T03:52:23;29.92;;;14.27;;
61785;SDS011;47692;53.714;11.372;2022-11-15T03:54:52;27.27;;;13.77;;
61785;SDS011;47692;53.714;11.372;2022-11-15T03:57:19;27.00;;;13.30;;
61785;SDS011;47692;53.714;11.372;2022-11-15T03:59:45;28.50;;;14.13;;
61785;SDS011;47692;53.714;11.372;2022-11-15T04:02:10;25.90;;;12.77;;
61785;SDS011;47692;53.714;11.372;2022-11-15T04:04:35;22.77;;;12.27;;
61785;SDS011;47692;53.714;11.372;2022-11-15T04:07:01;26.50;;;13.73;;
61785;SDS011;47692;53.714;11.372;2022-11-15T04:09:26;28.15;;;13.48;;
61785;SDS011;47692;53.714;11.372;2022-11-15T04:11:51;29.98;;;14.25;;
61785;SDS011;47692;53.714;11.372;2022-11-15T04:14:17;28.67;;;13.40;;
61785;SDS011;47692;53.714;11.372;2022-11-15T04:16:42;27.42;;;13.52;;
61785;SDS011;47692;53.714;11.372;2022-11-15T04:19:07;30.33;;;13.93;;
61785;SDS011;47692;53.714;11.372;2022-11-15T04:21:51;29.42;;;15.27;;
61785;SDS011;47692;53.714;11.372;2022-11-15T04:24:35;30.27;;;14.65;;
61785;SDS011;47692;53.714;11.372;2022-11-15T04:27:00;28.40;;;13.88;;
61785;SDS011;47692;53.714;11.372;2022-11-15T04:29:26;29.30;;;14.82;;
61785;SDS011;47692;53.714;11.372;2022-11-15T04:32:01;31.58;;;14.48;;
61785;SDS011;47692;53.714;11.372;2022-11-15T04:34:31;30.42;;;15.35;;
61785;SDS011;47692;53.714;11.372;2022-11-15T04:36:57;31.40;;;14.70;;
61785;SDS011;47692;53.714;11.372;2022-11-15T04:39:37;29.80;;;14.88;;
61785;SDS011;47692;53.714;11.372;2022-11-15T04:42:03;32.53;;;14.75;;
61785;SDS011;47692;53.714;11.372;2022-11-15T04:44:28;30.20;;;14.30;;
61785;SDS011;47692;53.714;11.372;2022-11-15T04:46:54;27.88;;;14.68;;
61785;SDS011;47692;53.714;11.372;2022-11-15T04:49:19;33.88;;;15.98;;
61785;SDS011;47692;53.714;11.372;2022-11-15T04:51:45;31.23;;;15.68;;
61785;SDS011;47692;53.714;11.372;2022-11-15T04:54:10;33.55;;;15.77;;
61785;SDS011;47692;53.714;11.372;2022-11-15T04:56:36;33.10;;;15.20;;
61785;SDS011;47692;53.714;11.372;2022-11-15T04:59:01;36.33;;;16.00;;
61785;SDS011;47692;53.714;11.372;2022-11-15T05:01:26;35.15;;;16.38;;
61785;SDS011;47692;53.714;11.372;2022-11-15T05:03:52;36.78;;;16.67;;
61785;SDS011;47692;53.714;11.372;2022-11-15T05:06:35;51.83;;;26.60;;
61785;SDS011;47692;53.714;11.372;2022-11-15T05:09:01;35.58;;;16.90;;
61785;SDS011;47692;53.714;11.372;2022-11-15T05:11:26;35.67;;;18.15;;
61785;SDS011;47692;53.714;11.372;2022-11-15T05:13:54;33.42;;;17.95;;
61785;SDS011;47692;53.714;11.372;2022-11-15T05:16:20;33.17;;;15.88;;
61785;SDS011;47692;53.714;11.372;2022-11-15T05:18:45;28.70;;;13.75;;
61785;SDS011;47692;53.714;11.372;2022-11-15T05:21:11;32.13;;;16.08;;
61785;SDS011;47692;53.714;11.372;2022-11-15T05:23:39;29.20;;;15.30;;
61785;SDS011;47692;53.714;11.372;2022-11-15T05:26:06;32.80;;;15.52;;
61785;SDS011;47692;53.714;11.372;2022-11-15T05:28:32;35.38;;;17.98;;
61785;SDS011;47692;53.714;11.372;2022-11-15T05:31:05;26.45;;;15.10;;
61785;SDS011;47692;53.714;11.372;2022-11-15T05:33:32;37.60;;;19.75;;
61785;SDS011;47692;53.714;11.372;2022-11-15T05:36:06;34.42;;;16.23;;
61785;SDS011;47692;53.714;11.372;2022-11-15T05:38:37;33.58;;;16.00;;
61785;SDS011;47692;53.714;11.372;2022-11-15T05:41:02;35.33;;;17.15;;
61785;SDS011;47692;53.714;11.372;2022-11-15T05:43:29;37.38;;;16.08;;
61785;SDS011;47692;53.714;11.372;2022-11-15T05:45:57;32.03;;;14.88;;
61785;SDS011;47692;53.714;11.372;2022-11-15T05:48:24;25.90;;;13.20;;
61785;SDS011;47692;53.714;11.372;2022-11-15T05:50:50;31.65;;;15.10;;
61785;SDS011;47692;53.714;11.372;2022-11-15T05:53:17;33.50;;;16.02;;
61785;SDS011;47692;53.714;11.372;2022-11-15T05:55:45;29.45;;;13.73;;
61785;SDS011;47692;53.714;11.372;2022-11-15T05:58:11;32.28;;;16.00;;
61785;SDS011;47692;53.714;11.372;2022-11-15T06:00:36;32.25;;;15.07;;
61785;SDS011;47692;53.714;11.372;2022-11-15T06:03:02;33.78;;;15.63;;
61785;SDS011;47692;53.714;11.372;2022-11-15T06:05:27;25.70;;;12.93;;
61785;SDS011;47692;53.714;11.372;2022-11-15T06:07:52;31.48;;;14.88;;
61785;SDS011;47692;53.714;11.372;2022-11-15T06:10:22;26.63;;;13.55;;
61785;SDS011;47692;53.714;11.372;2022-11-15T06:12:55;25.95;;;13.88;;
61785;SDS011;47692;53.714;11.372;2022-11-15T06:15:24;28.27;;;15.38;;
61785;SDS011;47692;53.714;11.372;2022-11-15T06:17:49;28.35;;;14.48;;
61785;SDS011;47692;53.714;11.372;2022-11-15T06:20:15;29.20;;;13.80;;
61785;SDS011;47692;53.714;11.372;2022-11-15T06:22:40;28.05;;;14.35;;
61785;SDS011;47692;53.714;11.372;2022-11-15T06:25:06;27.23;;;13.55;;
61785;SDS011;47692;53.714;11.372;2022-11-15T06:27:31;29.27;;;14.10;;
61785;SDS011;47692;53.714;11.372;2022-11-15T06:29:56;24.92;;;13.05;;
61785;SDS011;47692;53.714;11.372;2022-11-15T06:32:22;26.08;;;13.25;;
61785;SDS011;47692;53.714;11.372;2022-11-15T06:34:47;27.13;;;14.07;;
61785;SDS011;47692;53.714;11.372;2022-11-15T06:37:12;26.67;;;12.48;;
61785;SDS011;47692;53.714;11.372;2022-11-15T06:39:38;26.42;;;13.32;;
61785;SDS011;47692;53.714;11.372;2022-11-15T06:42:03;25.52;;;12.00;;
61785;SDS011;47692;53.714;11.372;2022-11-15T06:44:28;28.50;;;13.25;;
61785;SDS011;47692;53.714;11.372;2022-11-15T06:46:54;25.25;;;12.73;;
61785;SDS011;47692;53.714;11.372;2022-11-15T06:49:19;21.20;;;11.43;;
61785;SDS011;47692;53.714;11.372;2022-11-15T06:51:44;21.00;;;11.90;;
61785;SDS011;47692;53.714;11.372;2022-11-15T06:54:09;26.65;;;12.93;;
61785;SDS011;47692;53.714;11.372;2022-11-15T06:56:35;26.25;;;13.05;;
61785;SDS011;47692;53.714;11.372;2022-11-15T06:59:00;25.15;;;12.18;;
61785;SDS011;47692;53.714;11.372;2022-11-15T07:01:26;24.92;;;12.15;;
61785;SDS011;47692;53.714;11.372;2022-11-15T07:03:51;22.35;;;12.82;;
61785;SDS011;47692;53.714;11.372;2022-11-15T07:06:16;26.23;;;13.20;;
61785;SDS011;47692;53.714;11.372;2022-11-15T07:08:42;25.52;;;13.02;;
61785;SDS011;47692;53.714;11.372;2022-11-15T07:11:07;25.38;;;13.30;;
61785;SDS011;47692;53.714;11.372;2022-11-15T07:13:33;24.95;;;12.80;;
61785;SDS011;47692;53.714;11.372;2022-11-15T07:16:04;25.92;;;12.95;;
61785;SDS011;47692;53.714;11.372;2022-11-15T07:18:33;23.67;;;12.32;;
61785;SDS011;47692;53.714;11.372;2022-11-15T07:21:00;23.33;;;11.90;;
61785;SDS011;47692;53.714;11.372;2022-11-15T07:23:27;25.98;;;12.63;;
61785;SDS011;47692;53.714;11.372;2022-11-15T07:25:52;23.95;;;12.60;;
61785;SDS011;47692;53.714;11.372;2022-11-15T07:28:17;24.60;;;13.25;;
61785;SDS011;47692;53.714;11.372;2022-11-15T07:30:43;21.92;;;12.57;;
61785;SDS011;47692;53.714;11.372;2022-11-15T07:33:08;23.10;;;13.00;;
61785;SDS011;47692;53.714;11.372;2022-11-15T07:35:33;23.65;;;12.35;;
61785;SDS011;47692;53.714;11.372;2022-11-15T07:37:59;22.83;;;12.55;;
61785;SDS011;47692;53.714;11.372;2022-11-15T07:40:27;28.35;;;13.23;;
61785;SDS011;47692;53.714;11.372;2022-11-15T07:43:03;29.92;;;14.07;;
61785;SDS011;47692;53.714;11.372;2022-11-15T07:45:31;25.80;;;13.65;;
61785;SDS011;47692;53.714;11.372;2022-11-15T07:47:59;26.67;;;13.40;;
61785;SDS011;47692;53.714;11.372;2022-11-15T07:50:25;26.23;;;12.88;;
61785;SDS011;47692;53.714;11.372;2022-11-15T07:52:57;25.20;;;12.00;;
61785;SDS011;47692;53.714;11.372;2022-11-15T07:55:24;25.67;;;13.02;;
61785;SDS011;47692;53.714;11.372;2022-11-15T07:57:50;25.02;;;11.95;;
61785;SDS011;47692;53.714;11.372;2022-11-15T08:00:16;27.15;;;13.07;;
61785;SDS011;47692;53.714;11.372;2022-11-15T08:02:42;25.02;;;12.45;;
61785;SDS011;47692;53.714;11.372;2022-11-15T08:05:08;23.98;;;12.32;;
61785;SDS011;47692;53.714;11.372;2022-11-15T08:07:33;22.17;;;12.20;;
61785;SDS011;47692;53.714;11.372;2022-11-15T08:09:59;24.15;;;11.75;;
61785;SDS011;47692;53.714;11.372;2022-11-15T08:12:26;23.40;;;12.23;;
61785;SDS011;47692;53.714;11.372;2022-11-15T08:14:55;23.65;;;12.23;;
61785;SDS011;47692;53.714;11.372;2022-11-15T08:17:21;22.00;;;11.73;;
61785;SDS011;47692;53.714;11.372;2022-11-15T08:19:50;22.90;;;11.10;;
61785;SDS011;47692;53.714;11.372;2022-11-15T08:22:15;20.85;;;11.68;;
61785;SDS011;47692;53.714;11.372;2022-11-15T08:24:41;21.58;;;11.60;;
61785;SDS011;47692;53.714;11.372;2022-11-15T08:27:06;21.52;;;10.90;;
61785;SDS011;47692;53.714;11.372;2022-11-15T08:29:42;24.35;;;11.63;;
61785;SDS011;47692;53.714;11.372;2022-11-15T08:32:09;24.05;;;11.15;;
61785;SDS011;47692;53.714;11.372;2022-11-15T08:34:35;26.75;;;12.02;;
61785;SDS011;47692;53.714;11.372;2022-11-15T08:37:00;24.65;;;12.18;;
61785;SDS011;47692;53.714;11.372;2022-11-15T08:39:26;21.77;;;11.55;;
61785;SDS011;47692;53.714;11.372;2022-11-15T08:41:51;22.55;;;12.15;;
61785;SDS011;47692;53.714;11.372;2022-11-15T08:44:16;23.10;;;11.10;;
61785;SDS011;47692;53.714;11.372;2022-11-15T08:46:42;20.95;;;11.02;;
61785;SDS011;47692;53.714;11.372;2022-11-15T08:49:07;20.92;;;10.77;;
61785;SDS011;47692;53.714;11.372;2022-11-15T08:51:32;21.08;;;11.05;;
61785;SDS011;47692;53.714;11.372;2022-11-15T08:53:58;21.85;;;11.48;;
61785;SDS011;47692;53.714;11.372;2022-11-15T08:56:23;17.58;;;9.95;;
61785;SDS011;47692;53.714;11.372;2022-11-15T08:58:48;21.85;;;11.60;;
61785;SDS011;47692;53.714;11.372;2022-11-15T09:01:17;25.38;;;11.55;;
61785;SDS011;47692;53.714;11.372;2022-11-15T09:03:44;20.45;;;10.45;;
61785;SDS011;47692;53.714;11.372;2022-11-15T09:06:09;21.45;;;10.73;;
61785;SDS011;47692;53.714;11.372;2022-11-15T09:08:34;18.90;;;10.13;;
61785;SDS011;47692;53.714;11.372;2022-11-15T09:11:03;19.45;;;10.77;;
61785;SDS011;47692;53.714;11.372;2022-11-15T09:13:30;21.42;;;11.18;;
61785;SDS011;47692;53.714;11.372;2022-11-15T09:15:58;19.23;;;10.10;;
61785;SDS011;47692;53.714;11.372;2022-11-15T09:18:25;20.23;;;10.55;;
61785;SDS011;47692;53.714;11.372;2022-11-15T09:20:54;18.85;;;9.65;;
61785;SDS011;47692;53.714;11.372;2022-11-15T09:23:21;21.38;;;10.88;;
61785;SDS011;47692;53.714;11.372;2022-11-15T09:25:47;19.55;;;10.00;;
61785;SDS011;47692;53.714;11.372;2022-11-15T09:28:12;19.42;;;9.80;;
61785;SDS011;47692;53.714;11.372;2022-11-15T09:30:38;16.90;;;10.43;;
61785;SDS011;47692;53.714;11.372;2022-11-15T09:33:07;21.08;;;11.85;;
61785;SDS011;47692;53.714;11.372;2022-11-15T09:35:33;19.17;;;10.25;;
61785;SDS011;47692;53.714;11.372;2022-11-15T09:37:58;18.08;;;9.90;;
61785;SDS011;47692;53.714;11.372;2022-11-15T09:40:24;20.17;;;10.52;;
61785;SDS011;47692;53.714;11.372;2022-11-15T09:51:00;18.83;;;9.77;;
61785;SDS011;47692;53.714;11.372;2022-11-15T09:56:16;19.77;;;10.13;;
61785;SDS011;47692;53.714;11.372;2022-11-15T09:58:53;17.88;;;9.25;;
61785;SDS011;47692;53.714;11.372;2022-11-15T10:01:26;20.05;;;10.10;;
61785;SDS011;47692;53.714;11.372;2022-11-15T10:04:20;16.88;;;9.27;;
61785;SDS011;47692;53.714;11.372;2022-11-15T10:06:52;19.00;;;9.23;;
61785;SDS011;47692;53.714;11.372;2022-11-15T10:09:24;22.63;;;10.90;;
61785;SDS011;47692;53.714;11.372;2022-11-15T10:11:54;19.25;;;10.05;;
61785;SDS011;47692;53.714;11.372;2022-11-15T10:14:21;18.30;;;11.35;;
61785;SDS011;47692;53.714;11.372;2022-11-15T10:16:57;18.15;;;9.68;;
61785;SDS011;47692;53.714;11.372;2022-11-15T10:19:47;17.42;;;9.93;;
61785;SDS011;47692;53.714;11.372;2022-11-15T10:23:21;18.42;;;9.35;;
61785;SDS011;47692;53.714;11.372;2022-11-15T10:25:27;20.13;;;10.73;;
61785;SDS011;47692;53.714;11.372;2022-11-15T10:30:34;16.23;;;9.32;;
61785;SDS011;47692;53.714;11.372;2022-11-15T10:35:48;14.27;;;8.27;;
61785;SDS011;47692;53.714;11.372;2022-11-15T10:38:13;18.13;;;9.65;;
61785;SDS011;47692;53.714;11.372;2022-11-15T10:40:39;17.67;;;9.63;;
61785;SDS011;47692;53.714;11.372;2022-11-15T10:45:34;17.15;;;9.40;;
61785;SDS011;47692;53.714;11.372;2022-11-15T10:50:38;18.92;;;9.45;;
61785;SDS011;47692;53.714;11.372;2022-11-15T10:55:42;14.80;;;9.43;;
61785;SDS011;47692;53.714;11.372;2022-11-15T10:58:50;14.95;;;9.63;;
61785;SDS011;47692;53.714;11.372;2022-11-15T11:01:17;17.23;;;9.43;;
61785;SDS011;47692;53.714;11.372;2022-11-15T11:03:45;16.40;;;8.55;;
61785;SDS011;47692;53.714;11.372;2022-11-15T11:06:24;14.60;;;8.68;;
61785;SDS011;47692;53.714;11.372;2022-11-15T11:08:54;15.02;;;8.45;;
61785;SDS011;47692;53.714;11.372;2022-11-15T11:11:25;16.70;;;9.50;;
61785;SDS011;47692;53.714;11.372;2022-11-15T11:14:12;15.27;;;8.70;;
61785;SDS011;47692;53.714;11.372;2022-11-15T11:16:44;15.77;;;8.05;;
61785;SDS011;47692;53.714;11.372;2022-11-15T11:22:03;18.02;;;9.18;;
61785;SDS011;47692;53.714;11.372;2022-11-15T11:24:43;16.85;;;9.32;;
61785;SDS011;47692;53.714;11.372;2022-11-15T11:27:26;16.38;;;8.35;;
61785;SDS011;47692;53.714;11.372;2022-11-15T11:39:00;12.60;;;7.90;;
61785;SDS011;47692;53.714;11.372;2022-11-15T11:41:33;12.25;;;7.50;;
61785;SDS011;47692;53.714;11.372;2022-11-15T11:49:46;17.38;;;8.80;;
61785;SDS011;47692;53.714;11.372;2022-11-15T11:52:30;16.58;;;8.88;;
61785;SDS011;47692;53.714;11.372;2022-11-15T11:55:14;12.40;;;8.45;;
61785;SDS011;47692;53.714;11.372;2022-11-15T12:12:00;13.05;;;7.75;;
61785;SDS011;47692;53.714;11.372;2022-11-15T12:17:05;13.43;;;7.95;;
61785;SDS011;47692;53.714;11.372;2022-11-15T12:19:35;12.35;;;7.57;;
61785;SDS011;47692;53.714;11.372;2022-11-15T12:22:06;12.07;;;7.90;;
61785;SDS011;47692;53.714;11.372;2022-11-15T12:24:58;13.27;;;7.82;;
61785;SDS011;47692;53.714;11.372;2022-11-15T12:27:47;12.73;;;7.50;;
61785;SDS011;47692;53.714;11.372;2022-11-15T12:30:18;14.68;;;8.18;;
61785;SDS011;47692;53.714;11.372;2022-11-15T12:32:58;14.55;;;7.75;;
61785;SDS011;47692;53.714;11.372;2022-11-15T12:35:39;13.35;;;7.97;;
61785;SDS011;47692;53.714;11.372;2022-11-15T12:38:10;11.10;;;7.68;;
61785;SDS011;47692;53.714;11.372;2022-11-15T12:40:37;11.80;;;7.30;;
61785;SDS011;47692;53.714;11.372;2022-11-15T12:46:03;14.30;;;7.93;;
61785;SDS011;47692;53.714;11.372;2022-11-15T12:51:01;12.35;;;7.70;;
61785;SDS011;47692;53.714;11.372;2022-11-15T12:53:31;11.57;;;7.72;;
61785;SDS011;47692;53.714;11.372;2022-11-15T13:14:59;12.77;;;8.23;;
61785;SDS011;47692;53.714;11.372;2022-11-15T13:22:39;14.65;;;8.88;;
61785;SDS011;47692;53.714;11.372;2022-11-15T13:25:19;14.50;;;8.38;;
61785;SDS011;47692;53.714;11.372;2022-11-15T13:27:47;13.52;;;8.55;;
61785;SDS011;47692;53.714;11.372;2022-11-15T13:30:16;19.77;;;9.90;;
61785;SDS011;47692;53.714;11.372;2022-11-15T13:32:45;15.02;;;8.90;;
61785;SDS011;47692;53.714;11.372;2022-11-15T13:35:18;14.60;;;8.10;;
61785;SDS011;47692;53.714;11.372;2022-11-15T13:37:49;13.35;;;9.02;;
61785;SDS011;47692;53.714;11.372;2022-11-15T13:42:47;15.25;;;8.52;;
61785;SDS011;47692;53.714;11.372;2022-11-15T13:45:16;15.13;;;9.60;;
61785;SDS011;47692;53.714;11.372;2022-11-15T13:47:43;13.68;;;7.80;;
61785;SDS011;47692;53.714;11.372;2022-11-15T13:50:21;13.88;;;8.82;;
61785;SDS011;47692;53.714;11.372;2022-11-15T13:52:51;14.18;;;8.13;;
61785;SDS011;47692;53.714;11.372;2022-11-15T13:55:18;13.13;;;8.00;;
61785;SDS011;47692;53.714;11.372;2022-11-15T13:57:53;16.20;;;8.98;;
61785;SDS011;47692;53.714;11.372;2022-11-15T14:02:53;20.30;;;11.10;;
61785;SDS011;47692;53.714;11.372;2022-11-15T14:05:20;41.08;;;16.88;;
61785;SDS011;47692;53.714;11.372;2022-11-15T14:07:55;31.00;;;15.68;;
61785;SDS011;47692;53.714;11.372;2022-11-15T14:10:41;26.98;;;13.98;;
61785;SDS011;47692;53.714;11.372;2022-11-15T14:13:10;19.67;;;11.65;;
61785;SDS011;47692;53.714;11.372;2022-11-15T14:15:52;17.73;;;10.43;;
61785;SDS011;47692;53.714;11.372;2022-11-15T14:21:07;16.48;;;9.85;;
61785;SDS011;47692;53.714;11.372;2022-11-15T14:23:33;16.67;;;10.18;;
61785;SDS011;47692;53.714;11.372;2022-11-15T14:25:59;17.52;;;10.20;;
61785;SDS011;47692;53.714;11.372;2022-11-15T14:30:53;18.92;;;10.32;;
61785;SDS011;47692;53.714;11.372;2022-11-15T14:35:47;23.58;;;12.32;;
61785;SDS011;47692;53.714;11.372;2022-11-15T14:38:12;21.23;;;12.45;;
61785;SDS011;47692;53.714;11.372;2022-11-15T14:40:38;19.65;;;11.15;;
61785;SDS011;47692;53.714;11.372;2022-11-15T14:43:04;17.63;;;10.13;;
61785;SDS011;47692;53.714;11.372;2022-11-15T14:45:29;19.50;;;11.05;;
61785;SDS011;47692;53.714;11.372;2022-11-15T14:47:55;16.05;;;10.13;;
61785;SDS011;47692;53.714;11.372;2022-11-15T14:50:21;15.95;;;9.30;;
61785;SDS011;47692;53.714;11.372;2022-11-15T14:52:48;18.45;;;10.45;;
61785;SDS011;47692;53.714;11.372;2022-11-15T14:55:21;15.10;;;9.40;;
61785;SDS011;47692;53.714;11.372;2022-11-15T14:57:48;31.20;;;17.77;;
61785;SDS011;47692;53.714;11.372;2022-11-15T15:00:14;24.27;;;13.65;;
61785;SDS011;47692;53.714;11.372;2022-11-15T15:02:41;26.05;;;13.05;;
61785;SDS011;47692;53.714;11.372;2022-11-15T15:05:50;31.17;;;17.63;;
61785;SDS011;47692;53.714;11.372;2022-11-15T15:08:04;26.17;;;13.43;;
61785;SDS011;47692;53.714;11.372;2022-11-15T15:10:34;23.13;;;13.98;;
61785;SDS011;47692;53.714;11.372;2022-11-15T15:13:01;25.17;;;14.40;;
61785;SDS011;47692;53.714;11.372;2022-11-15T15:15:37;19.50;;;11.63;;
61785;SDS011;47692;53.714;11.372;2022-11-15T15:18:03;19.38;;;12.65;;
61785;SDS011;47692;53.714;11.372;2022-11-15T15:20:30;25.75;;;15.73;;
61785;SDS011;47692;53.714;11.372;2022-11-15T15:22:56;25.52;;;15.10;;
61785;SDS011;47692;53.714;11.372;2022-11-15T15:25:32;21.13;;;12.82;;
61785;SDS011;47692;53.714;11.372;2022-11-15T15:27:59;18.50;;;10.95;;
61785;SDS011;47692;53.714;11.372;2022-11-15T15:30:26;19.67;;;11.10;;
61785;SDS011;47692;53.714;11.372;2022-11-15T15:32:53;22.50;;;11.93;;
61785;SDS011;47692;53.714;11.372;2022-11-15T15:35:19;34.83;;;12.00;;
61785;SDS011;47692;53.714;11.372;2022-11-15T15:37:45;20.50;;;11.73;;
61785;SDS011;47692;53.714;11.372;2022-11-15T15:40:16;19.65;;;11.40;;
61785;SDS011;47692;53.714;11.372;2022-11-15T15:42:44;25.45;;;12.38;;
61785;SDS011;47692;53.714;11.372;2022-11-15T15:45:10;25.00;;;13.85;;
61785;SDS011;47692;53.714;11.372;2022-11-15T15:47:35;19.25;;;11.98;;
61785;SDS011;47692;53.714;11.372;2022-11-15T15:50:01;23.50;;;14.98;;
61785;SDS011;47692;53.714;11.372;2022-11-15T15:52:27;21.77;;;12.80;;
61785;SDS011;47692;53.714;11.372;2022-11-15T15:54:52;18.90;;;11.48;;
61785;SDS011;47692;53.714;11.372;2022-11-15T15:57:17;20.38;;;12.20;;
61785;SDS011;47692;53.714;11.372;2022-11-15T15:59:43;22.15;;;13.32;;
61785;SDS011;47692;53.714;11.372;2022-11-15T16:02:10;20.85;;;12.63;;
61785;SDS011;47692;53.714;11.372;2022-11-15T16:04:37;26.92;;;14.77;;
61785;SDS011;47692;53.714;11.372;2022-11-15T16:07:03;30.05;;;17.67;;
61785;SDS011;47692;53.714;11.372;2022-11-15T16:09:29;31.38;;;17.98;;
61785;SDS011;47692;53.714;11.372;2022-11-15T16:12:13;28.83;;;15.25;;
61785;SDS011;47692;53.714;11.372;2022-11-15T16:14:39;30.48;;;16.35;;
61785;SDS011;47692;53.714;11.372;2022-11-15T16:17:04;41.08;;;22.85;;
61785;SDS011;47692;53.714;11.372;2022-11-15T16:19:30;29.85;;;16.83;;
61785;SDS011;47692;53.714;11.372;2022-11-15T16:21:55;26.38;;;14.98;;
61785;SDS011;47692;53.714;11.372;2022-11-15T16:24:21;25.25;;;14.63;;